Norasia Valparaiso — A8CJ9 — position and weather

sailwx.info

Track history (hours):
 
Tides and Currents Weather Stations Pressure Air Temp Water Temp Dewpoint Dewpoint Depression Visibility Wind Speed Wind Dir Waves Ship Positions

Norasia Valparaiso

Last reported at 2015-Jul-17 06:13 UTC. Time now 2015-Jul-28 15:26 UTC.
Position N 25°32' W 079°53'.
Warning: this ship's position is 11 days out of date.

Length 286.3 m; beam 32.2 m; draft 13.2 m.

Type: Ship (hazmat cat A). MMSI: 636090659.

Date/timePositionNaut miles runAvg speedWind from/ knotsBaromVisibWave heightAir tempDewpointWater temp
2015-Jul-17 06:13N 25°32' W 079°53'913.1
2015-Jul-17 05:33N 25°40' W 079°58'1010.3
2015-Jul-17 04:33N 25°46' W 080°07'2 1.9
2015-Jul-17 03:33N 25°46' W 080°09'0 0.0
2015-Jul-17 02:33N 25°46' W 080°09'0 0.0
2015-Jul-17 01:33N 25°46' W 080°09'0 0.0
2015-Jul-17 00:33N 25°46' W 080°09'0 0.0
2015-Jul-16 23:33N 25°46' W 080°09'0 0.0
2015-Jul-16 22:33N 25°46' W 080°09'0 0.0
2015-Jul-16 21:33N 25°46' W 080°09'0 0.0
2015-Jul-16 20:33N 25°46' W 080°09'0 0.0
2015-Jul-16 19:33N 25°46' W 080°09'0 0.0
2015-Jul-16 18:33N 25°46' W 080°09'0 0.0
2015-Jul-16 17:33N 25°46' W 080°09'1 1.0
2015-Jul-16 16:33N 25°46' W 080°08'5 5.2
2015-Jul-16 15:33N 25°49' W 080°04'1110.9
2015-Jul-16 14:33N 25°58' W 079°56'1212.4
2015-Jul-16 13:33N 26°10' W 079°53'1211.7
2015-Jul-16 12:33N 26°21' W 079°53'1313.2
2015-Jul-16 11:33N 26°35' W 079°53'1614.2
2015-Jul-16 10:24N 26°51' W 079°52'1214.1
2015-Jul-16 09:34N 27°03' W 079°52'30813.7
2015-Jul-15 11:05N 32°05' W 081°01'3 5.6
2015-Jul-15 10:33N 32°05' W 081°05'4 1.3
2015-Jul-15 07:33N 32°08' W 081°08'0 0.0
2015-Jul-15 06:33N 32°08' W 081°08'0 0.0
2015-Jul-15 05:33N 32°08' W 081°08'0 0.0
2015-Jul-15 04:33N 32°08' W 081°08'0 0.0
2015-Jul-15 03:33N 32°08' W 081°08'0 0.0
2015-Jul-15 02:33N 32°08' W 081°08'0 0.0
2015-Jul-15 01:33N 32°08' W 081°08'0 0.0
2015-Jul-15 00:33N 32°08' W 081°08'0 0.0
2015-Jul-14 23:30N 32°08' W 081°08'0 0.0
2015-Jul-14 22:33N 32°08' W 081°08'0 0.0
2015-Jul-14 21:33N 32°08' W 081°08'4 3.8
2015-Jul-14 20:34N 32°05' W 081°05'8 8.3
2015-Jul-14 19:33N 32°03' W 080°56'1312.9
2015-Jul-14 18:33N 31°57' W 080°42'8 8.1
2015-Jul-14 17:33N 31°56' W 080°32'2410.5
2015-Jul-14 15:19N 31°56' W 080°05'1013.2
2015-Jul-14 14:34N 31°60' W 079°53'  
2015-Jul-12 09:33N 38°21' W 074°17'1614.2
2015-Jul-12 08:24N 38°35' W 074°06'1214.0
2015-Jul-12 07:34N 38°45' W 074°00'1414.1
2015-Jul-12 06:33N 38°59' W 073°58'1414.5
2015-Jul-12 05:33N 39°14' W 073°57'1414.4
2015-Jul-12 04:33N 39°28' W 073°55'1414.0
2015-Jul-12 03:33N 39°42' W 073°52'1414.1
2015-Jul-12 02:33N 39°56' W 073°51'1413.6
2015-Jul-12 01:33N 40°10' W 073°49'10 9.6
2015-Jul-12 00:33N 40°19' W 073°49'8 8.2
2015-Jul-11 23:33N 40°27' W 073°50'1313.2
2015-Jul-11 22:33N 40°37' W 074°03'5 5.3
2015-Jul-11 21:33N 40°39' W 074°09'1 0.8
2015-Jul-11 20:31N 40°40' W 074°09'0 0.0
2015-Jul-11 19:31N 40°40' W 074°09'0 0.0
2015-Jul-11 18:31N 40°40' W 074°09'0 0.0
2015-Jul-11 17:31N 40°40' W 074°09'0 0.0
2015-Jul-11 16:31N 40°40' W 074°09'0 0.0
2015-Jul-11 15:31N 40°40' W 074°09'0 0.0
2015-Jul-11 14:31N 40°40' W 074°09'0 0.0
2015-Jul-11 13:31N 40°40' W 074°09'0 0.0
2015-Jul-11 12:28N 40°40' W 074°09'0 0.0
2015-Jul-11 11:31N 40°40' W 074°09'0 0.0
2015-Jul-11 10:31N 40°40' W 074°09'0 0.0
2015-Jul-11 09:31N 40°40' W 074°09'0 0.0
2015-Jul-11 08:31N 40°40' W 074°09'0 0.0
2015-Jul-11 07:31N 40°40' W 074°09'0 0.0
2015-Jul-11 06:31N 40°40' W 074°09'0 0.0
2015-Jul-11 05:31N 40°40' W 074°09'0 0.0
2015-Jul-11 04:31N 40°40' W 074°09'0 0.0
2015-Jul-11 03:22N 40°40' W 074°09'0 0.0
2015-Jul-11 02:31N 40°40' W 074°09'0 0.0
2015-Jul-11 01:31N 40°40' W 074°09'0 0.0
2015-Jul-11 00:31N 40°40' W 074°09'0 0.0
2015-Jul-10 23:31N 40°40' W 074°09'0 0.0
2015-Jul-10 22:31N 40°40' W 074°09'0 0.0
2015-Jul-10 21:31N 40°40' W 074°09'0 0.0
2015-Jul-10 20:28N 40°40' W 074°09'0 0.0
2015-Jul-10 19:31N 40°40' W 074°09'0 0.0
2015-Jul-10 18:31N 40°40' W 074°09'0 0.0
2015-Jul-10 17:31N 40°40' W 074°09'0 0.0
2015-Jul-10 16:31N 40°40' W 074°09'0 0.0
2015-Jul-10 15:31N 40°40' W 074°09'0 0.0
2015-Jul-10 14:34N 40°40' W 074°09'4 4.2
2015-Jul-10 13:34N 40°38' W 074°03'10 9.9
2015-Jul-10 12:33N 40°30' W 073°56'4511.3
2015-Jul-10 08:33N 40°01' W 073°11'1716.2
2015-Jul-10 07:31N 39°46' W 073°02'7116.7
2015-Jul-10 03:16N 38°40' W 072°26'3017.6
2015-Jul-10 01:33N 38°13' W 072°11'  
Track history (hours):
 
Tides and Currents Weather Stations Pressure Air Temp Water Temp Dewpoint Dewpoint Depression Visibility Wind Speed Wind Dir Waves Ship Positions

Norasia Valparaiso

Last reported at 2015-Jul-17 06:13 UTC. Time now 2015-Jul-28 15:26 UTC.
Position N 25°32' W 079°53'.
Warning: this ship's position is 11 days out of date.

Length 286.3 m; beam 32.2 m; draft 13.2 m.

Type: Ship (hazmat cat A). MMSI: 636090659.

Date/timePositionNaut miles runAvg speedWind from/ knotsBaromVisibWave heightAir tempDewpointWater temp
2015-Jul-17 06:13N 25°32' W 079°53'913.1
2015-Jul-17 05:33N 25°40' W 079°58'1010.3
2015-Jul-17 04:33N 25°46' W 080°07'2 1.9
2015-Jul-17 03:33N 25°46' W 080°09'0 0.0
2015-Jul-17 02:33N 25°46' W 080°09'0 0.0
2015-Jul-17 01:33N 25°46' W 080°09'0 0.0
2015-Jul-17 00:33N 25°46' W 080°09'0 0.0
2015-Jul-16 23:33N 25°46' W 080°09'0 0.0
2015-Jul-16 22:33N 25°46' W 080°09'0 0.0
2015-Jul-16 21:33N 25°46' W 080°09'0 0.0
2015-Jul-16 20:33N 25°46' W 080°09'0 0.0
2015-Jul-16 19:33N 25°46' W 080°09'0 0.0
2015-Jul-16 18:33N 25°46' W 080°09'0 0.0
2015-Jul-16 17:33N 25°46' W 080°09'1 1.0
2015-Jul-16 16:33N 25°46' W 080°08'5 5.2
2015-Jul-16 15:33N 25°49' W 080°04'1110.9
2015-Jul-16 14:33N 25°58' W 079°56'1212.4
2015-Jul-16 13:33N 26°10' W 079°53'1211.7
2015-Jul-16 12:33N 26°21' W 079°53'1313.2
2015-Jul-16 11:33N 26°35' W 079°53'1614.2
2015-Jul-16 10:24N 26°51' W 079°52'1214.1
2015-Jul-16 09:34N 27°03' W 079°52'30813.7
2015-Jul-15 11:05N 32°05' W 081°01'3 5.6
2015-Jul-15 10:33N 32°05' W 081°05'4 1.3
2015-Jul-15 07:33N 32°08' W 081°08'0 0.0
2015-Jul-15 06:33N 32°08' W 081°08'0 0.0
2015-Jul-15 05:33N 32°08' W 081°08'0 0.0
2015-Jul-15 04:33N 32°08' W 081°08'0 0.0
2015-Jul-15 03:33N 32°08' W 081°08'0 0.0
2015-Jul-15 02:33N 32°08' W 081°08'0 0.0
2015-Jul-15 01:33N 32°08' W 081°08'0 0.0
2015-Jul-15 00:33N 32°08' W 081°08'0 0.0
2015-Jul-14 23:30N 32°08' W 081°08'0 0.0
2015-Jul-14 22:33N 32°08' W 081°08'0 0.0
2015-Jul-14 21:33N 32°08' W 081°08'4 3.8
2015-Jul-14 20:34N 32°05' W 081°05'8 8.3
2015-Jul-14 19:33N 32°03' W 080°56'1312.9
2015-Jul-14 18:33N 31°57' W 080°42'8 8.1
2015-Jul-14 17:33N 31°56' W 080°32'2410.5
2015-Jul-14 15:19N 31°56' W 080°05'1013.2
2015-Jul-14 14:34N 31°60' W 079°53'  
2015-Jul-12 09:33N 38°21' W 074°17'1614.2
2015-Jul-12 08:24N 38°35' W 074°06'1214.0
2015-Jul-12 07:34N 38°45' W 074°00'1414.1
2015-Jul-12 06:33N 38°59' W 073°58'1414.5
2015-Jul-12 05:33N 39°14' W 073°57'1414.4
2015-Jul-12 04:33N 39°28' W 073°55'1414.0
2015-Jul-12 03:33N 39°42' W 073°52'1414.1
2015-Jul-12 02:33N 39°56' W 073°51'1413.6
2015-Jul-12 01:33N 40°10' W 073°49'10 9.6
2015-Jul-12 00:33N 40°19' W 073°49'8 8.2
2015-Jul-11 23:33N 40°27' W 073°50'1313.2
2015-Jul-11 22:33N 40°37' W 074°03'5 5.3
2015-Jul-11 21:33N 40°39' W 074°09'1 0.8
2015-Jul-11 20:31N 40°40' W 074°09'0 0.0
2015-Jul-11 19:31N 40°40' W 074°09'0 0.0
2015-Jul-11 18:31N 40°40' W 074°09'0 0.0
2015-Jul-11 17:31N 40°40' W 074°09'0 0.0
2015-Jul-11 16:31N 40°40' W 074°09'0 0.0
2015-Jul-11 15:31N 40°40' W 074°09'0 0.0
2015-Jul-11 14:31N 40°40' W 074°09'0 0.0
2015-Jul-11 13:31N 40°40' W 074°09'0 0.0
2015-Jul-11 12:28N 40°40' W 074°09'0 0.0
2015-Jul-11 11:31N 40°40' W 074°09'0 0.0
2015-Jul-11 10:31N 40°40' W 074°09'0 0.0
2015-Jul-11 09:31N 40°40' W 074°09'0 0.0
2015-Jul-11 08:31N 40°40' W 074°09'0 0.0
2015-Jul-11 07:31N 40°40' W 074°09'0 0.0
2015-Jul-11 06:31N 40°40' W 074°09'0 0.0
2015-Jul-11 05:31N 40°40' W 074°09'0 0.0
2015-Jul-11 04:31N 40°40' W 074°09'0 0.0
2015-Jul-11 03:22N 40°40' W 074°09'0 0.0
2015-Jul-11 02:31N 40°40' W 074°09'0 0.0
2015-Jul-11 01:31N 40°40' W 074°09'0 0.0
2015-Jul-11 00:31N 40°40' W 074°09'0 0.0
2015-Jul-10 23:31N 40°40' W 074°09'0 0.0
2015-Jul-10 22:31N 40°40' W 074°09'0 0.0
2015-Jul-10 21:31N 40°40' W 074°09'0 0.0
2015-Jul-10 20:28N 40°40' W 074°09'0 0.0
2015-Jul-10 19:31N 40°40' W 074°09'0 0.0
2015-Jul-10 18:31N 40°40' W 074°09'0 0.0
2015-Jul-10 17:31N 40°40' W 074°09'0 0.0
2015-Jul-10 16:31N 40°40' W 074°09'0 0.0
2015-Jul-10 15:31N 40°40' W 074°09'0 0.0
2015-Jul-10 14:34N 40°40' W 074°09'4 4.2
2015-Jul-10 13:34N 40°38' W 074°03'10 9.9
2015-Jul-10 12:33N 40°30' W 073°56'4511.3
2015-Jul-10 08:33N 40°01' W 073°11'1716.2
2015-Jul-10 07:31N 39°46' W 073°02'7116.7
2015-Jul-10 03:16N 38°40' W 072°26'3017.6
2015-Jul-10 01:33N 38°13' W 072°11'  

Dump ship's entire track history